Airfield :
LOGIN :

Register | Disclaimer

   EN    FR    IT 

 










Legend :    VFR   Marginal VFR   IFR   Intensive IFR   Very Intensive IFR
Visi :
Ceiling :
>= 8 km
>= 3000ft
5 to 8 km
1000 to 3000 ft
1500m to 5 km
500 to 1000 ft
800 to 1500m
200 to 500 ft
< 800m
< 200 ft
Symbols :   Thunderstorms  Fog  Heavy snow  Heavy precipitations  Wind > 20 kt
SIGMETs :     Misc.  Thunderstorms  Icing  Turbulence  Mountain Waves  Volcanic Ashes







- Airport Elevation : 870 ft
- IATA code : ETZ
- Download approach charts


LFJL - Metz Nancy Lorraine

CURRENT METAR :
  • 262100Z AUTO 06004KT CAVOK 13/10 Q1023 NOSIG

EXPIRED METARs :
  • 262030Z AUTO 03003KT CAVOK 13/09 Q1023 NOSIG
  • 262000Z AUTO 35002KT CAVOK 14/10 Q1023 NOSIG
  • 261930Z AUTO 09005KT CAVOK 14/10 Q1023 NOSIG
  • 261900Z AUTO 08006KT 9999 NCD 14/10 Q1022 NOSIG
  • 261830Z AUTO 10007KT 9999 NCD 14/10 Q1022 NOSIG

TAF TAF LFJL
Valid from the 26 at 18:00 until the 27 at 18:00 UTC


261700Z 2618/2718 09005KT CAVOK
PROB30
TEMPO 2702/2708 4000 BR BKN005
BECMG 2709/2712 SCT030
TEMPO 2712/2718 BKN035
No reported NOTAMs for that airfield.



MET'MAP, your aeronautical weather chart ! - Copyright ORBIFLY December 2007 - Disclaimer

ORBIFLY MET'MAP TEAM :

Programming & Development : Alexandra Zaïnal
Concept & Development : Baudouin d'Aumeries
Co-Development & Prog : Marc-Olivier Méhu
Technical & hardware support : Manuel Goepfert

Contact : metmap@orbifly.com




SOURCES & CREDITS :

   NOAA